Sunday, October 22, 2017, 5:13 PM EDT
Back to Local

KPSF, Pittsfield Municipal Airport

Location: Pittsfield, MA, United States Lat: 42.433
Local Time: 5:13 PM EDT (21:13 GMT) Lon: -73.283
Time Zone: US/Eastern Elev: 1194 ft

Show me the last for .
Show Coded

Time T Td Feel RH Dir Speed Gust Alt SLP Vis Weather Sky Remarks
2017-10-22 16:54 70 40 - 33 210° 8 - 30.35 30.31 10 CLR None
2017-10-22 15:54 71 40 - 32 Variable 3 - 30.36 30.32 10 CLR None
2017-10-22 14:54 71 39 - 31 170° 7 - 30.35 30.31 10 CLR None
2017-10-22 13:54 72 41 - 32 190° 7 - 30.36 30.32 10 CLR 6-hr Min Temp (2pm): 39.9°F
6-hr Max Temp (2pm): 73.0°F
2017-10-22 12:54 72 41 - 32 - Calm - 30.37 30.32 10 CLR None
2017-10-22 11:54 66 43 - 43 - Calm - 30.39 30.35 10 CLR None
2017-10-22 10:54 61 42 - 49 - Calm - 30.40 30.37 10 CLR None
2017-10-22 09:54 52 43 - 71 - Calm - 30.41 30.40 10 CLR None
2017-10-22 08:54 47 44 - 89 - Calm - 30.42 30.40 10 CLR None
2017-10-22 07:54 40 38 - 92 - Calm - 30.41 30.40 10 CLR 6-hr Min Temp (8am): 39.0°F
6-hr Max Temp (8am): 44.1°F
2017-10-22 06:54 41 38 - 88 - Calm - 30.39 30.37 10 CLR None
2017-10-22 05:54 41 39 - 92 - Calm - 30.38 30.36 10 CLR None
2017-10-22 04:54 42 40 - 91 - Calm - 30.37 30.34 8 CLR None
2017-10-22 03:54 42 40 - 91 - Calm - 30.36 30.32 10 CLR None
2017-10-22 02:54 43 40 - 88 - Calm - 30.36 30.32 10 CLR None
2017-10-22 01:54 43 40 - 88 - Calm - 30.36 30.32 10 CLR 6-hr Min Temp (2am): 42.1°F
6-hr Max Temp (2am): 53.1°F
2017-10-22 00:54 43 40 - 88 - Calm - 30.36 30.32 10 CLR 24-hr Min Temp (1am): 37.0°F
24-hr Max Temp (1am): 73.0°F
2017-10-21 23:54 46 40 - 79 - Calm - 30.35 30.32 10 CLR None
2017-10-21 22:54 46 41 - 82 - Calm - 30.35 30.32 10 CLR None
2017-10-21 21:54 47 40 - 76 - Calm - 30.35 30.33 10 CLR None
2017-10-21 20:54 50 40 - 68 - Calm - 30.34 30.32 10 CLR None
2017-10-21 19:54 52 40 - 63 - Calm - 30.33 30.32 10 CLR 6-hr Min Temp (8pm): 52.0°F
6-hr Max Temp (8pm): 73.0°F
2017-10-21 18:54 56 42 - 59 - Calm - 30.32 30.30 10 CLR None
2017-10-21 17:54 62 47 - 57 - Calm - 30.31 30.29 10 CLR None

Support USWX by starting your Amazon purchase here.